Time;durP1;ratioP1;P1;durP2;ratioP2;P2;SDS_P1;SDS_P2;PMS_P1;PMS_P2;Temp;Humidity;BMP_temperature;BMP_pressure;BME280_temperature;BME280_humidity;BME280_pressure;Samples;Min_cycle;Max_cycle;Signal;HPM_P1;HPM_P2
2022/04/22 00:00:54;;;;;;;10.13;6.00;;;;;;;12.79;55.21;100836.44;5072647;28;20028;-62
2022/04/22 00:03:19;;;;;;;10.20;6.20;;;;;;;12.76;55.21;100840.00;5072906;28;20020;-62
2022/04/22 00:05:45;;;;;;;9.43;6.07;;;;;;;12.76;55.28;100829.38;5072674;28;20025;-62
2022/04/22 00:08:10;;;;;;;12.52;6.22;;;;;;;12.66;55.96;100818.75;5072938;28;20031;-62
2022/04/22 00:11:28;;;;;;;9.85;6.00;;;;;;;12.63;55.78;100819.59;5072841;28;20025;-64
2022/04/22 00:13:21;;;;;;;10.27;6.07;;;;;;;12.62;55.98;100820.50;5072488;28;20090;-62
2022/04/22 00:15:46;;;;;;;8.18;5.82;;;;;;;12.58;56.40;100824.03;5073884;28;20024;-62
2022/04/22 00:18:11;;;;;;;12.80;5.78;;;;;;;12.57;56.73;100818.72;5076444;28;20482;-62
2022/04/22 00:20:37;;;;;;;8.68;5.88;;;;;;;12.50;56.64;100818.72;5076367;28;20439;-62
2022/04/22 00:23:02;;;;;;;11.73;6.25;;;;;;;12.52;57.06;100824.03;5076269;28;20028;-62
2022/04/22 00:25:27;;;;;;;8.23;6.13;;;;;;;12.46;56.80;100814.31;5076014;28;20032;-64
2022/04/22 00:27:53;;;;;;;10.82;6.07;;;;;;;12.41;57.14;100816.03;5076422;28;20115;-62
2022/04/22 00:30:19;;;;;;;11.05;6.20;;;;;;;12.39;57.17;100812.50;5076256;28;20099;-62
2022/04/22 00:32:44;;;;;;;8.38;6.03;;;;;;;12.36;57.46;100812.50;5076121;28;20025;-62
2022/04/22 00:35:10;;;;;;;10.40;6.07;;;;;;;12.29;57.63;100810.72;5069218;28;20048;-62
2022/04/22 00:37:36;;;;;;;10.48;6.30;;;;;;;12.24;57.88;100817.75;5056134;28;20036;-62
2022/04/22 00:40:02;;;;;;;9.98;6.10;;;;;;;12.22;58.26;100811.56;5055886;28;20033;-62
2022/04/22 00:42:28;;;;;;;10.43;6.13;;;;;;;12.26;57.63;100813.34;5038059;28;20032;-62
2022/04/22 00:44:54;;;;;;;14.52;5.75;;;;;;;12.27;58.02;100809.81;5056196;28;20101;-62
2022/04/22 00:47:19;;;;;;;8.45;6.50;;;;;;;12.27;58.00;100805.41;5056037;28;20444;-61
2022/04/22 00:49:44;;;;;;;9.52;6.10;;;;;;;12.25;58.53;100812.47;5055782;28;20593;-62
2022/04/22 00:52:11;;;;;;;13.52;6.28;;;;;;;12.20;58.53;100803.59;5055768;28;20025;-62
2022/04/22 00:54:36;;;;;;;12.10;6.15;;;;;;;12.15;58.78;100801.81;5055643;28;20459;-62
2022/04/22 00:57:02;;;;;;;10.27;5.93;;;;;;;12.13;58.63;100800.94;5055449;28;20032;-62
2022/04/22 00:59:30;;;;;;;10.27;6.45;;;;;;;12.09;58.82;100797.41;5055604;28;20028;-61
2022/04/22 01:01:55;;;;;;;10.32;6.88;;;;;;;12.06;58.98;100802.66;5055669;28;20029;-62
2022/04/22 01:09:51;;;;;;;9.80;6.47;;;;;;;11.98;59.28;100789.38;5055337;28;20040;-62
2022/04/22 01:12:18;;;;;;;11.80;6.88;;;;;;;12.01;59.85;100789.41;5055451;28;20064;-61
2022/04/22 01:14:45;;;;;;;10.00;6.57;;;;;;;12.00;59.99;100787.66;5055138;28;20028;-62
2022/04/22 01:17:10;;;;;;;12.02;6.93;;;;;;;11.95;60.08;100780.56;5055407;28;20025;-62
2022/04/22 01:19:36;;;;;;;10.80;6.57;;;;;;;11.95;60.18;100780.56;5055236;28;20497;-62
2022/04/22 01:22:02;;;;;;;13.13;6.80;;;;;;;11.86;60.90;100783.16;5055044;28;20021;-62
2022/04/22 01:24:28;;;;;;;10.95;6.90;;;;;;;11.79;61.12;100779.59;5055185;28;20029;-62
2022/04/22 01:26:55;;;;;;;14.23;7.32;;;;;;;11.80;60.88;100778.69;5054336;28;20017;-62
2022/04/22 01:29:21;;;;;;;11.60;6.82;;;;;;;11.77;61.10;100770.72;5055125;28;20024;-61
2022/04/22 01:31:47;;;;;;;10.32;6.65;;;;;;;11.72;61.25;100770.72;5055021;28;20032;-62
2022/04/22 01:34:13;;;;;;;11.80;7.50;;;;;;;11.70;61.86;100768.97;5054973;28;20382;-62
2022/04/22 01:36:38;;;;;;;9.80;6.72;;;;;;;11.69;61.79;100760.13;5054719;28;20136;-63
2022/04/22 01:39:03;;;;;;;12.45;7.10;;;;;;;11.72;61.62;100770.72;5054867;28;20035;-62
2022/04/22 01:41:29;;;;;;;10.57;7.05;;;;;;;11.74;61.89;100762.81;5054727;28;20045;-61
2022/04/22 01:43:55;;;;;;;12.48;7.72;;;;;;;11.69;61.58;100765.44;5054956;28;20037;-62
2022/04/22 01:46:20;;;;;;;13.70;7.20;;;;;;;11.63;62.00;100759.19;5055340;28;20025;-62
2022/04/22 01:48:46;;;;;;;11.77;6.78;;;;;;;11.57;62.42;100753.91;5055131;28;20482;-61
2022/04/22 01:51:11;;;;;;;12.02;7.43;;;;;;;11.57;62.54;100756.53;5054441;28;20489;-62
2022/04/22 01:53:36;;;;;;;9.48;7.60;;;;;;;11.56;62.67;100758.28;5054638;28;20052;-62
2022/04/22 01:56:03;;;;;;;9.93;7.03;;;;;;;11.51;62.53;100760.91;5054511;28;20027;-62
2022/04/22 01:58:28;;;;;;;14.05;7.35;;;;;;;11.43;62.75;100767.91;5054533;28;20028;-62
2022/04/22 02:00:53;;;;;;;11.60;7.18;;;;;;;11.41;63.01;100767.03;5054366;28;20447;-62
2022/04/22 02:03:19;;;;;;;12.05;8.25;;;;;;;11.39;62.84;100763.50;5054324;28;20029;-62
2022/04/22 02:05:44;;;;;;;10.38;7.60;;;;;;;11.40;63.12;100759.09;5054266;28;20032;-62
2022/04/22 02:08:09;;;;;;;11.32;7.60;;;;;;;11.41;63.02;100769.66;5054278;28;20032;-62
2022/04/22 02:10:35;;;;;;;11.25;7.68;;;;;;;11.38;63.00;100766.13;5054125;28;20116;-62
2022/04/22 02:13:00;;;;;;;14.05;8.05;;;;;;;11.35;63.34;100763.44;5054414;28;20028;-62
2022/04/22 02:15:27;;;;;;;11.45;7.70;;;;;;;11.34;63.46;100766.97;5054141;28;20072;-62
2022/04/22 02:17:55;;;;;;;10.65;7.35;;;;;;;11.33;63.48;100762.56;5054173;28;20032;-62
2022/04/22 02:20:22;;;;;;;11.18;7.97;;;;;;;11.27;63.51;100769.59;5054080;28;20359;-62
2022/04/22 02:22:47;;;;;;;9.95;7.65;;;;;;;11.32;63.67;100766.97;5053998;28;20086;-62
2022/04/22 02:25:12;;;;;;;11.65;7.75;;;;;;;11.34;63.34;100772.25;5053709;28;20413;-62
2022/04/22 02:30:23;;;;;;;13.85;8.73;;;;;;;11.23;64.08;100765.16;5053936;28;20087;-61
2022/04/22 02:32:48;;;;;;;11.55;8.10;;;;;;;11.24;63.79;100760.75;5053887;28;20086;-62
2022/04/22 02:35:14;;;;;;;13.63;8.07;;;;;;;11.25;63.96;100767.78;5060567;28;20413;-62
2022/04/22 02:37:39;;;;;;;10.25;7.47;;;;;;;11.22;64.20;100765.13;5073564;28;20028;-62
2022/04/22 02:40:05;;;;;;;10.18;7.75;;;;;;;11.23;64.24;100758.97;5073449;28;20055;-62
2022/04/22 02:45:26;;;;;;;11.82;8.40;;;;;;;11.08;64.74;100751.81;5073807;28;20181;-62
2022/04/22 02:47:52;;;;;;;11.38;7.82;;;;;;;11.07;64.73;100746.53;5073531;28;20382;-62
2022/04/22 02:50:17;;;;;;;12.48;8.18;;;;;;;11.08;64.71;100746.53;5073643;28;20035;-62
2022/04/22 02:52:43;;;;;;;12.38;8.25;;;;;;;11.07;64.14;100747.41;5073541;28;20046;-62
2022/04/22 02:55:08;;;;;;;14.95;8.30;;;;;;;10.99;65.04;100744.69;5073413;28;20468;-62
2022/04/22 02:57:34;;;;;;;10.65;8.07;;;;;;;10.98;65.08;100740.28;5073648;28;20095;-62
2022/04/22 03:00:00;;;;;;;11.60;8.45;;;;;;;11.05;64.76;100746.53;5073449;28;20427;-62
2022/04/22 03:02:25;;;;;;;13.13;8.13;;;;;;;11.01;65.03;100735.03;5073473;28;20027;-61
2022/04/22 03:04:52;;;;;;;12.63;8.70;;;;;;;10.96;65.18;100734.13;5073200;28;20025;-63
2022/04/22 03:07:17;;;;;;;12.55;8.73;;;;;;;10.90;65.35;100731.41;5073466;28;20032;-62
2022/04/22 03:09:42;;;;;;;14.30;8.30;;;;;;;10.92;65.38;100734.97;5073205;28;20070;-62
2022/04/22 03:12:08;;;;;;;12.32;8.27;;;;;;;10.94;65.29;100730.56;5073223;28;20017;-61
2022/04/22 03:14:34;;;;;;;16.05;8.57;;;;;;;11.00;65.03;100735.00;5073136;28;20162;-62
2022/04/22 03:16:59;;;;;;;12.68;8.27;;;;;;;10.98;64.93;100728.84;5073270;28;20103;-62
2022/04/22 03:19:24;;;;;;;12.65;8.35;;;;;;;10.89;65.67;100731.41;5073161;28;20072;-61
2022/04/22 03:21:50;;;;;;;14.05;8.57;;;;;;;10.88;65.60;100734.94;5073048;28;20138;-62
2022/04/22 03:24:15;;;;;;;11.55;8.32;;;;;;;10.86;65.80;100732.25;5073156;28;20024;-62
2022/04/22 03:26:40;;;;;;;13.48;8.50;;;;;;;10.77;66.46;100741.00;5073113;28;20491;-62
2022/04/22 03:29:06;;;;;;;12.93;9.02;;;;;;;10.70;66.42;100733.88;5072962;28;20478;-62
2022/04/22 03:31:31;;;;;;;13.80;8.55;;;;;;;10.67;66.21;100727.72;5073008;28;20028;-62
2022/04/22 03:33:56;;;;;;;12.10;8.98;;;;;;;10.71;66.47;100740.97;5073002;28;20024;-62
2022/04/22 03:36:21;;;;;;;13.82;9.23;;;;;;;10.70;66.56;100739.16;5072517;28;20054;-62
2022/04/22 03:38:47;;;;;;;17.23;9.00;;;;;;;10.73;66.24;100731.28;5072840;28;20122;-62
2022/04/22 03:41:12;;;;;;;14.00;9.02;;;;;;;10.72;66.53;100728.63;5072953;28;20390;-61
2022/04/22 03:43:40;;;;;;;18.70;9.30;;;;;;;10.67;66.58;100730.34;5072814;28;20474;-62
2022/04/22 03:46:05;;;;;;;14.75;9.52;;;;;;;10.61;67.01;100728.53;5072986;28;20084;-62
2022/04/22 03:48:30;;;;;;;12.40;9.30;;;;;;;10.60;66.78;100726.75;5072931;28;20048;-62
2022/04/22 03:50:56;;;;;;;13.75;9.35;;;;;;;10.57;67.06;100718.81;5074529;28;20470;-61
2022/04/22 03:53:21;;;;;;;14.23;9.38;;;;;;;10.55;66.93;100723.19;5076769;28;20035;-62
2022/04/22 03:55:47;;;;;;;13.63;9.57;;;;;;;10.53;67.35;100720.56;5076765;28;20055;-62
2022/04/22 03:58:12;;;;;;;15.63;9.52;;;;;;;10.52;67.42;100724.03;5076717;28;20048;-62
2022/04/22 04:00:49;;;;;;;13.68;10.13;;;;;;;10.53;66.99;100717.00;5076829;28;20031;-62
2022/04/22 04:03:20;;;;;;;16.20;9.65;;;;;;;10.53;66.97;100711.72;5076798;28;20107;-61
2022/04/22 04:05:50;;;;;;;14.18;9.95;;;;;;;10.58;66.92;100715.31;5076621;28;20060;-62
2022/04/22 04:08:18;;;;;;;16.05;9.80;;;;;;;10.55;66.99;100712.63;5076840;28;20056;-62
2022/04/22 04:16:11;;;;;;;12.93;9.73;;;;;;;10.49;67.16;100718.75;5076503;28;20110;-62
2022/04/22 04:18:38;;;;;;;13.40;9.80;;;;;;;10.48;67.04;100719.59;5076362;28;20462;-62
2022/04/22 04:23:50;;;;;;;16.73;9.73;;;;;;;10.40;67.80;100715.13;5076429;28;20063;-61
2022/04/22 04:26:16;;;;;;;15.48;9.90;;;;;;;10.35;67.86;100722.13;5075655;28;20056;-61
2022/04/22 04:28:44;;;;;;;18.70;9.75;;;;;;;10.35;68.12;100709.81;5075505;28;20021;-61
2022/04/22 04:31:13;;;;;;;16.65;10.00;;;;;;;10.38;68.19;100711.59;5075167;28;20082;-62
2022/04/22 04:33:40;;;;;;;16.48;9.55;;;;;;;10.42;68.13;100703.72;5075228;28;20032;-61
2022/04/22 04:36:09;;;;;;;15.52;10.15;;;;;;;10.39;68.19;100705.44;5075209;28;20102;-62
2022/04/22 04:38:34;;;;;;;16.08;10.75;;;;;;;10.32;68.55;100700.97;5057328;28;20453;-62
2022/04/22 04:41:00;;;;;;;16.67;10.32;;;;;;;10.34;68.77;100712.44;5057513;28;20056;-62
2022/04/22 04:43:26;;;;;;;16.20;10.45;;;;;;;10.32;68.80;100703.59;5075354;28;20052;-62
2022/04/22 04:45:52;;;;;;;15.48;10.35;;;;;;;10.34;68.85;100708.03;5075311;28;20063;-62
2022/04/22 04:48:18;;;;;;;15.57;10.30;;;;;;;10.28;69.26;100703.59;5075296;28;20060;-62
2022/04/22 04:50:44;;;;;;;16.05;10.60;;;;;;;10.34;69.17;100707.16;5075180;28;20099;-62
2022/04/22 04:53:11;;;;;;;14.93;10.13;;;;;;;10.32;69.78;100706.25;5075229;28;20028;-61
2022/04/22 04:55:37;;;;;;;15.23;10.35;;;;;;;10.38;69.08;100709.84;5075237;28;20103;-61
2022/04/22 04:58:02;;;;;;;15.50;9.82;;;;;;;10.36;69.25;100710.69;5075027;28;20029;-62
2022/04/22 05:00:28;;;;;;;13.38;10.00;;;;;;;10.31;69.22;100708.00;5076125;28;20035;-62
2022/04/22 05:02:55;;;;;;;15.10;10.25;;;;;;;10.31;69.50;100712.41;5075866;28;20070;-62
2022/04/22 05:05:20;;;;;;;15.68;11.70;;;;;;;10.32;69.76;100706.25;5075271;28;20032;-62
2022/04/22 05:07:51;;;;;;;14.32;10.18;;;;;;;10.37;69.47;100713.34;5075407;28;20027;-62
2022/04/22 05:10:18;;;;;;;16.60;10.20;;;;;;;10.41;69.38;100714.28;5074730;28;20032;-62
2022/04/22 05:12:50;;;;;;;21.80;10.38;;;;;;;10.38;69.60;100703.69;5074946;28;20149;-61
2022/04/22 05:15:18;;;;;;;15.98;10.00;;;;;;;10.43;69.64;100713.41;5074655;28;20032;-62
2022/04/22 05:17:44;;;;;;;15.90;10.98;;;;;;;10.46;69.99;100704.63;5074841;28;20055;-62
2022/04/22 05:20:11;;;;;;;16.23;9.95;;;;;;;10.57;69.83;100712.63;5056505;28;20024;-62
2022/04/22 05:22:37;;;;;;;14.32;10.30;;;;;;;10.66;69.75;100707.41;5074884;28;20053;-62
2022/04/22 05:25:04;;;;;;;20.08;10.82;;;;;;;10.72;69.61;100712.78;5074570;28;20021;-62
2022/04/22 05:27:31;;;;;;;17.05;10.45;;;;;;;10.76;69.96;100710.16;5074688;28;20072;-62
2022/04/22 05:32:42;;;;;;;14.93;10.35;;;;;;;10.88;69.52;100709.38;5074587;28;20070;-62
2022/04/22 05:35:09;;;;;;;16.15;11.45;;;;;;;10.97;69.41;100706.81;5056001;28;20028;-62
2022/04/22 05:37:52;;;;;;;18.40;11.55;;;;;;;11.11;69.05;100712.16;5074485;28;20028;-62
2022/04/22 05:40:20;;;;;;;17.70;11.65;;;;;;;11.19;69.32;100710.47;5074348;28;20028;-62
2022/04/22 05:42:46;;;;;;;15.07;11.40;;;;;;;11.26;69.32;100703.44;5074530;28;20024;-61
2022/04/22 05:45:13;;;;;;;17.63;11.82;;;;;;;11.31;69.30;100709.66;5074306;28;20032;-62
2022/04/22 05:47:39;;;;;;;16.77;12.18;;;;;;;11.40;68.75;100712.34;5073978;28;20474;-62
2022/04/22 05:50:06;;;;;;;15.35;11.80;;;;;;;11.50;68.81;100714.16;5074226;28;20492;-62
2022/04/22 05:52:34;;;;;;;19.52;12.38;;;;;;;11.58;68.38;100719.47;5074146;28;20024;-62
2022/04/22 05:55:03;;;;;;;25.05;13.27;;;;;;;11.69;68.12;100720.44;5073719;28;20020;-62
2022/04/22 05:57:33;;;;;;;19.27;14.35;;;;;;;11.73;68.04;100721.28;5074049;28;20060;-62
2022/04/22 05:59:59;;;;;;;23.00;13.50;;;;;;;11.77;68.22;100723.97;5073829;28;20044;-62
2022/04/22 06:02:26;;;;;;;18.85;12.20;;;;;;;11.87;68.53;100726.69;5073871;28;20024;-62
2022/04/22 06:04:52;;;;;;;19.65;12.40;;;;;;;11.99;67.61;100724.06;5073620;28;20191;-62
2022/04/22 06:07:18;;;;;;;19.88;13.02;;;;;;;12.13;67.76;100726.78;5073835;28;20024;-62
2022/04/22 06:12:27;;;;;;;19.25;12.85;;;;;;;12.35;66.90;100723.28;5073953;28;20032;-62
2022/04/22 06:14:53;;;;;;;18.13;12.88;;;;;;;12.40;66.72;100716.22;5072884;28;20028;-62
2022/04/22 06:17:18;;;;;;;19.52;13.15;;;;;;;12.48;66.22;100709.16;5073604;28;20032;-61
2022/04/22 06:19:44;;;;;;;17.77;13.55;;;;;;;12.48;66.11;100714.47;5073389;28;20016;-62
2022/04/22 06:22:09;;;;;;;21.75;13.65;;;;;;;12.59;66.44;100719.78;5073514;28;20020;-62
2022/04/22 06:24:34;;;;;;;19.42;13.60;;;;;;;12.72;65.89;100707.41;5073152;28;20039;-62
2022/04/22 06:27:00;;;;;;;18.92;13.55;;;;;;;12.86;65.73;100715.34;5073244;28;20024;-62
2022/04/22 06:29:25;;;;;;;18.42;13.70;;;;;;;12.97;65.09;100706.47;5073378;28;20032;-62
2022/04/22 06:31:51;;;;;;;18.58;13.55;;;;;;;13.09;64.95;100713.53;5073245;28;20056;-62
2022/04/22 06:34:17;;;;;;;18.30;13.05;;;;;;;13.16;64.90;100710.00;5073380;28;20032;-62
2022/04/22 06:36:43;;;;;;;15.75;11.93;;;;;;;13.20;64.15;100721.50;5072928;28;20098;-62
2022/04/22 06:39:08;;;;;;;20.88;13.20;;;;;;;13.26;64.25;100709.13;5073278;28;20035;-64
2022/04/22 06:47:03;;;;;;;16.50;12.48;;;;;;;13.71;63.01;100701.91;5072800;28;20202;-62
2022/04/22 06:49:29;;;;;;;18.48;14.00;;;;;;;13.65;62.62;100707.22;5073030;28;20111;-61
2022/04/22 06:51:55;;;;;;;20.33;13.13;;;;;;;13.77;63.16;100712.47;5072578;28;20476;-62
2022/04/22 06:54:21;;;;;;;18.95;13.18;;;;;;;13.90;62.43;100713.31;5072857;28;20376;-62
2022/04/22 06:56:48;;;;;;;17.15;12.82;;;;;;;14.17;61.48;100709.59;5072849;28;20021;-62
2022/04/22 06:59:15;;;;;;;18.67;13.30;;;;;;;14.31;60.73;100712.19;5072762;28;20347;-61
2022/04/22 07:01:41;;;;;;;19.58;14.45;;;;;;;14.14;60.78;100703.47;5072794;28;20028;-62
2022/04/22 07:04:07;;;;;;;22.48;13.50;;;;;;;14.00;61.17;100716.78;5072753;28;20135;-62
2022/04/22 07:06:32;;;;;;;21.70;13.70;;;;;;;13.95;61.55;100707.97;5072550;28;20394;-62
2022/04/22 07:08:58;;;;;;;23.02;13.35;;;;;;;13.83;61.81;100702.72;5072643;28;20183;-62
2022/04/22 07:11:26;;;;;;;18.40;13.35;;;;;;;13.69;61.65;100701.00;5072656;28;20024;-63
2022/04/22 07:13:56;;;;;;;19.70;13.35;;;;;;;13.67;62.05;100708.13;5072504;28;20024;-62
2022/04/22 07:16:22;;;;;;;30.02;13.98;;;;;;;13.61;62.77;100704.59;5072477;28;20036;-62
2022/04/22 07:18:48;;;;;;;25.13;14.10;;;;;;;13.69;62.53;100705.44;5072341;28;20393;-62
2022/04/22 07:21:14;;;;;;;21.83;14.60;;;;;;;13.66;62.80;100695.72;5072507;28;20025;-62
2022/04/22 07:23:40;;;;;;;19.65;13.43;;;;;;;13.75;62.76;100698.34;5072715;28;20016;-62
2022/04/22 07:26:09;;;;;;;18.13;13.38;;;;;;;13.85;62.43;100690.31;5071774;28;20539;-62
2022/04/22 07:28:35;;;;;;;20.08;13.75;;;;;;;14.01;62.22;100692.03;5072730;28;20024;-62
2022/04/22 07:31:04;;;;;;;18.10;13.60;;;;;;;14.05;61.89;100688.44;5072587;28;20016;-62
2022/04/22 07:33:33;;;;;;;18.50;14.02;;;;;;;14.24;60.54;100690.09;5072446;28;20028;-62
2022/04/22 07:35:59;;;;;;;16.50;13.10;;;;;;;14.34;60.41;100690.88;5071765;28;20052;-62
2022/04/22 07:38:25;;;;;;;18.73;14.15;;;;;;;14.43;59.95;100681.97;5072421;28;20020;-62
2022/04/22 07:40:51;;;;;;;18.27;12.75;;;;;;;14.56;59.53;100681.03;5072241;28;20159;-62
2022/04/22 07:48:56;;;;;;;14.40;12.15;;;;;;;14.68;58.63;100691.53;5072482;28;20129;-62
2022/04/22 07:51:24;;;;;;;17.00;12.30;;;;;;;14.87;59.20;100692.28;5071999;28;20028;-62
2022/04/22 07:53:49;;;;;;;17.00;12.07;;;;;;;15.10;57.40;100680.53;5072274;28;20024;-62
2022/04/22 07:56:15;;;;;;;15.63;12.15;;;;;;;15.27;56.86;100684.75;5072040;28;20036;-61
2022/04/22 07:58:40;;;;;;;17.83;12.32;;;;;;;15.23;56.25;100690.13;5072334;28;20029;-61
2022/04/22 08:01:05;;;;;;;14.85;11.48;;;;;;;15.18;56.04;100687.53;5071993;28;20462;-61
2022/04/22 08:03:31;;;;;;;17.60;12.52;;;;;;;15.07;56.90;100685.88;5072039;28;20079;-61
2022/04/22 08:05:57;;;;;;;19.65;11.57;;;;;;;15.00;57.78;100677.06;5072463;28;20024;-61
2022/04/22 08:08:22;;;;;;;19.90;11.75;;;;;;;14.99;58.20;100675.31;5072211;28;20078;-61
2022/04/22 08:10:48;;;;;;;19.55;12.90;;;;;;;14.98;58.04;100681.50;5072437;28;20078;-62
2022/04/22 08:13:14;;;;;;;17.63;12.07;;;;;;;14.88;57.97;100683.41;5072156;28;20173;-62
2022/04/22 08:15:40;;;;;;;15.85;12.15;;;;;;;14.76;57.89;100681.72;5072320;28;20034;-62
2022/04/22 08:18:05;;;;;;;17.88;12.80;;;;;;;14.56;58.55;100678.38;5072126;28;20428;-61
2022/04/22 08:20:32;;;;;;;16.65;12.07;;;;;;;14.46;59.24;100674.84;5072560;28;20449;-61
2022/04/22 08:22:59;;;;;;;17.75;12.68;;;;;;;14.40;58.84;100684.66;5071957;28;20485;-61
2022/04/22 08:25:25;;;;;;;15.93;12.68;;;;;;;14.25;59.94;100686.53;5072311;28;20111;-61
2022/04/22 08:27:51;;;;;;;17.40;11.93;;;;;;;14.29;59.54;100680.28;5071913;28;20039;-61
2022/04/22 08:30:16;;;;;;;15.48;12.23;;;;;;;14.31;59.45;100676.75;5071917;28;20025;-61
2022/04/22 08:32:42;;;;;;;14.88;12.27;;;;;;;14.34;59.58;100671.41;5071654;28;20441;-61
2022/04/22 08:35:08;;;;;;;18.77;12.82;;;;;;;14.47;59.53;100658.03;5071521;28;20216;-62
2022/04/22 08:37:33;;;;;;;16.45;11.60;;;;;;;14.57;58.66;100660.63;5074501;28;20071;-61
2022/04/22 08:39:59;;;;;;;16.20;12.20;;;;;;;14.64;58.97;100667.66;5075335;28;20135;-61
2022/04/22 08:42:25;;;;;;;16.75;12.27;;;;;;;14.71;58.36;100664.94;5075489;28;20025;-61
2022/04/22 08:44:54;;;;;;;19.98;12.52;;;;;;;14.78;58.50;100668.44;5075260;28;20488;-61
2022/04/22 08:50:16;;;;;;;19.30;12.88;;;;;;;14.84;58.66;100660.38;5075322;28;20409;-62
2022/04/22 08:52:43;;;;;;;16.77;12.77;;;;;;;15.03;58.17;100661.06;5075290;28;20116;-62
2022/04/22 08:55:10;;;;;;;22.10;11.98;;;;;;;15.26;57.18;100667.03;5075024;28;20044;-62
2022/04/22 08:57:35;;;;;;;17.50;12.23;;;;;;;15.62;56.56;100654.16;5075135;28;20047;-61
2022/04/22 09:00:04;;;;;;;14.90;11.77;;;;;;;15.99;54.75;100649.25;5075087;28;20469;-61
2022/04/22 09:02:30;;;;;;;18.65;12.10;;;;;;;16.34;54.02;100655.81;5075019;28;20459;-61
2022/04/22 09:04:56;;;;;;;16.25;11.68;;;;;;;16.66;53.10;100659.72;5075087;28;20123;-61
2022/04/22 09:07:25;;;;;;;16.67;11.27;;;;;;;16.73;52.91;100642.75;5074984;28;20024;-61
2022/04/22 09:09:50;;;;;;;15.73;12.27;;;;;;;16.62;52.25;100642.03;5075520;28;20434;-61
2022/04/22 09:12:22;;;;;;;16.17;12.00;;;;;;;16.53;53.13;100640.41;5075154;28;20059;-62
2022/04/22 09:14:49;;;;;;;16.02;10.93;;;;;;;16.52;51.97;100642.16;5074654;28;20038;-61
2022/04/22 09:17:22;;;;;;;14.30;11.10;;;;;;;16.65;52.19;100642.84;5074887;28;20032;-61
2022/04/22 09:19:47;;;;;;;13.90;10.32;;;;;;;16.85;50.91;100628.31;5074532;28;20028;-61
2022/04/22 09:22:22;;;;;;;13.35;10.02;;;;;;;16.98;50.46;100629.84;5074956;28;20047;-61
2022/04/22 09:24:48;;;;;;;13.35;10.70;;;;;;;16.84;51.07;100624.75;5074617;28;20102;-61
2022/04/22 09:27:13;;;;;;;31.60;11.20;;;;;;;16.96;51.38;100621.88;5074403;28;20447;-62
2022/04/22 09:29:53;;;;;;;32.55;11.80;;;;;;;17.24;51.25;100622.19;5074440;28;20025;-61
2022/04/22 09:32:25;;;;;;;16.02;10.10;;;;;;;17.62;48.79;100623.19;5074660;28;20089;-61
2022/04/22 09:34:54;;;;;;;14.05;10.48;;;;;;;17.74;48.02;100616.72;5074528;28;20032;-61
2022/04/22 09:42:55;;;;;;;11.30;9.23;;;;;;;17.88;46.72;100611.06;5074729;28;20047;-61
2022/04/22 09:45:21;;;;;;;12.55;9.80;;;;;;;17.86;46.60;100597.75;5074224;28;20050;-61
2022/04/22 09:47:57;;;;;;;19.50;10.45;;;;;;;17.91;47.31;100605.66;5073534;28;20466;-61
2022/04/22 09:50:41;;;;;;;13.73;9.93;;;;;;;17.76;47.00;100594.38;5073749;28;20025;-61
2022/04/22 09:53:07;;;;;;;10.85;9.18;;;;;;;17.65;47.68;100592.84;5073964;28;20058;-61
2022/04/22 09:55:45;;;;;;;12.85;9.98;;;;;;;17.45;47.42;100588.81;5073951;28;20025;-61
2022/04/22 09:58:11;;;;;;;17.00;10.73;;;;;;;17.31;48.05;100593.56;5073919;28;20417;-61
2022/04/22 10:00:36;;;;;;;14.80;10.20;;;;;;;17.15;48.72;100585.00;5073899;28;20024;-61
2022/04/22 10:03:03;;;;;;;13.82;10.40;;;;;;;17.13;48.58;100578.81;5073622;28;20085;-61
2022/04/22 10:05:31;;;;;;;12.45;9.20;;;;;;;16.97;46.90;100593.38;5073734;28;20040;-61
2022/04/22 10:08:00;;;;;;;15.07;9.40;;;;;;;16.83;47.65;100587.41;5073850;28;20052;-61
2022/04/22 10:10:35;;;;;;;12.27;10.27;;;;;;;16.67;48.59;100587.69;5073572;28;20040;-61
2022/04/22 10:13:03;;;;;;;15.45;10.60;;;;;;;16.54;48.40;100586.16;5073616;28;20029;-61
2022/04/22 10:15:31;;;;;;;13.98;10.30;;;;;;;16.43;49.15;100582.78;5073592;28;20032;-61
2022/04/22 10:17:57;;;;;;;20.77;10.07;;;;;;;16.26;49.80;100575.94;5073436;28;20017;-61
2022/04/22 10:20:26;;;;;;;16.25;10.80;;;;;;;16.11;50.66;100581.53;5073473;28;20031;-61
2022/04/22 10:22:52;;;;;;;14.63;10.10;;;;;;;16.02;50.68;100573.69;5073324;28;20024;-61
2022/04/22 10:25:18;;;;;;;13.23;11.00;;;;;;;16.02;50.60;100574.56;5073472;28;20036;-61
2022/04/22 10:27:46;;;;;;;15.65;11.07;;;;;;;16.05;50.96;100578.97;5073329;28;20104;-61
2022/04/22 10:30:13;;;;;;;14.10;10.77;;;;;;;16.11;50.28;100575.34;5073543;28;20096;-61
2022/04/22 10:32:41;;;;;;;16.88;10.88;;;;;;;16.16;50.32;100570.81;5073419;28;20033;-61
2022/04/22 10:35:07;;;;;;;15.50;10.73;;;;;;;16.18;50.25;100567.19;5072912;28;20024;-61
2022/04/22 10:37:34;;;;;;;16.05;10.38;;;;;;;16.24;49.61;100566.22;5073054;28;20028;-61
2022/04/22 10:40:02;;;;;;;13.02;10.40;;;;;;;16.19;49.84;100563.63;5072943;28;20023;-61
2022/04/22 10:42:33;;;;;;;15.00;10.48;;;;;;;16.22;49.71;100568.91;5072980;28;20098;-60
2022/04/22 10:47:48;;;;;;;19.77;9.82;;;;;;;16.12;49.39;100566.44;5073140;28;20460;-61
2022/04/22 10:50:32;;;;;;;13.38;9.80;;;;;;;16.10;49.36;100560.22;5073107;28;20111;-61
2022/04/22 10:53:05;;;;;;;15.65;9.93;;;;;;;16.01;49.37;100547.94;5072860;28;20028;-61
2022/04/22 10:55:32;;;;;;;15.93;9.82;;;;;;;16.05;49.44;100552.31;5072646;28;20041;-61
2022/04/22 10:58:12;;;;;;;16.92;10.48;;;;;;;16.06;49.79;100563.84;5072846;28;20036;-60
2022/04/22 11:00:40;;;;;;;14.02;9.75;;;;;;;16.04;49.57;100563.88;5072419;28;20024;-61
2022/04/22 11:03:15;;;;;;;13.60;10.65;;;;;;;16.04;50.12;100550.56;5072712;28;20090;-62
2022/04/22 11:06:00;;;;;;;17.25;10.32;;;;;;;16.00;49.98;100546.19;5072627;28;20040;-61
2022/04/22 11:08:34;;;;;;;14.68;10.32;;;;;;;15.97;50.15;100559.53;5072558;28;20016;-61
2022/04/22 11:11:15;;;;;;;13.77;10.95;;;;;;;16.08;50.12;100554.06;5054558;28;20385;-61
2022/04/22 11:13:42;;;;;;;13.15;10.55;;;;;;;16.30;50.00;100547.44;5072665;28;20028;-61
2022/04/22 11:16:12;;;;;;;12.75;10.38;;;;;;;16.42;49.56;100543.69;5073166;28;20070;-61
2022/04/22 11:18:39;;;;;;;14.93;10.93;;;;;;;16.43;49.12;100545.44;5072870;28;20466;-62
2022/04/22 11:21:11;;;;;;;14.38;11.02;;;;;;;16.45;48.93;100548.97;5072812;28;20024;-60
2022/04/22 11:23:46;;;;;;;14.40;10.63;;;;;;;16.43;49.60;100548.09;5072462;28;20021;-60
2022/04/22 11:26:17;;;;;;;20.30;11.60;;;;;;;16.36;49.82;100550.03;5072448;28;20055;-61
2022/04/22 11:28:45;;;;;;;16.80;11.35;;;;;;;16.20;50.07;100544.06;5072364;28;20033;-61
2022/04/22 11:31:12;;;;;;;17.42;11.10;;;;;;;16.15;50.49;100543.28;5072262;28;20127;-61
2022/04/22 11:33:52;;;;;;;16.38;11.38;;;;;;;16.05;50.30;100544.31;5072371;28;20068;-61
2022/04/22 11:36:17;;;;;;;17.67;11.13;;;;;;;15.99;50.54;100544.44;5072253;28;20501;-61
2022/04/22 11:38:52;;;;;;;13.70;10.75;;;;;;;15.99;50.63;100542.63;5072292;28;20057;-61
2022/04/22 11:41:18;;;;;;;18.90;10.90;;;;;;;16.03;50.74;100539.00;5072496;28;20028;-61
2022/04/22 11:43:44;;;;;;;16.10;11.25;;;;;;;15.98;50.91;100534.69;5054106;28;20473;-61
2022/04/22 11:46:14;;;;;;;14.68;10.55;;;;;;;15.96;51.35;100547.13;5072172;28;20035;-60
2022/04/22 11:48:53;;;;;;;28.67;11.32;;;;;;;16.02;50.74;100544.38;5072259;28;20032;-61
2022/04/22 11:51:19;;;;;;;19.77;10.57;;;;;;;16.17;50.46;100540.56;5071981;28;20440;-61
2022/04/22 11:53:46;;;;;;;14.80;10.73;;;;;;;16.28;49.89;100531.47;5072263;28;20024;-61
2022/04/22 11:56:16;;;;;;;13.55;10.32;;;;;;;16.36;49.82;100539.34;5071941;28;20046;-60
2022/04/22 11:58:41;;;;;;;15.95;10.80;;;;;;;16.40;49.43;100530.41;5072094;28;20031;-61